sensor_id;sensor_type;location;lat;lon;timestamp;P1;durP1;ratioP1;P2;durP2;ratioP2
74935;SDS011;63501;55.570;37.488;2023-06-22T00:02:22;1.25;;;1.00;;
74935;SDS011;63501;55.570;37.488;2023-06-22T00:04:49;2.78;;;2.53;;
74935;SDS011;63501;55.570;37.488;2023-06-22T00:07:17;3.30;;;1.70;;
74935;SDS011;63501;55.570;37.488;2023-06-22T00:09:44;4.72;;;1.75;;
74935;SDS011;63501;55.570;37.488;2023-06-22T00:12:11;2.30;;;1.30;;
74935;SDS011;63501;55.570;37.488;2023-06-22T00:14:39;2.20;;;2.00;;
74935;SDS011;63501;55.570;37.488;2023-06-22T00:17:06;10.52;;;1.63;;
74935;SDS011;63501;55.570;37.488;2023-06-22T00:19:34;1.45;;;1.15;;
74935;SDS011;63501;55.570;37.488;2023-06-22T00:22:01;2.05;;;1.65;;
74935;SDS011;63501;55.570;37.488;2023-06-22T00:24:29;1.95;;;1.48;;
74935;SDS011;63501;55.570;37.488;2023-06-22T00:26:56;1.40;;;1.30;;
74935;SDS011;63501;55.570;37.488;2023-06-22T00:29:24;3.40;;;2.35;;
74935;SDS011;63501;55.570;37.488;2023-06-22T00:31:52;4.60;;;2.28;;
74935;SDS011;63501;55.570;37.488;2023-06-22T00:34:19;1.20;;;0.70;;
74935;SDS011;63501;55.570;37.488;2023-06-22T00:36:46;1.73;;;1.02;;
74935;SDS011;63501;55.570;37.488;2023-06-22T00:39:13;7.32;;;1.95;;
74935;SDS011;63501;55.570;37.488;2023-06-22T00:41:40;7.10;;;2.13;;
74935;SDS011;63501;55.570;37.488;2023-06-22T00:44:07;3.92;;;1.15;;
74935;SDS011;63501;55.570;37.488;2023-06-22T00:46:35;2.05;;;1.52;;
74935;SDS011;63501;55.570;37.488;2023-06-22T00:49:03;2.95;;;1.65;;
74935;SDS011;63501;55.570;37.488;2023-06-22T00:51:31;4.70;;;1.38;;
74935;SDS011;63501;55.570;37.488;2023-06-22T00:53:59;1.23;;;1.02;;
74935;SDS011;63501;55.570;37.488;2023-06-22T00:56:26;3.13;;;1.35;;
74935;SDS011;63501;55.570;37.488;2023-06-22T00:58:55;2.25;;;1.92;;
74935;SDS011;63501;55.570;37.488;2023-06-22T01:01:25;2.67;;;1.48;;
74935;SDS011;63501;55.570;37.488;2023-06-22T01:03:52;6.15;;;1.98;;
74935;SDS011;63501;55.570;37.488;2023-06-22T01:06:26;1.77;;;1.33;;
74935;SDS011;63501;55.570;37.488;2023-06-22T01:09:05;3.22;;;1.20;;
74935;SDS011;63501;55.570;37.488;2023-06-22T01:11:41;3.38;;;1.75;;
74935;SDS011;63501;55.570;37.488;2023-06-22T01:14:12;1.20;;;1.10;;
74935;SDS011;63501;55.570;37.488;2023-06-22T01:16:45;3.03;;;1.50;;
74935;SDS011;63501;55.570;37.488;2023-06-22T01:19:20;2.53;;;1.25;;
74935;SDS011;63501;55.570;37.488;2023-06-22T01:21:57;3.03;;;1.67;;
74935;SDS011;63501;55.570;37.488;2023-06-22T01:24:27;3.05;;;1.20;;
74935;SDS011;63501;55.570;37.488;2023-06-22T01:27:04;1.25;;;1.00;;
74935;SDS011;63501;55.570;37.488;2023-06-22T01:29:43;2.50;;;1.58;;
74935;SDS011;63501;55.570;37.488;2023-06-22T01:32:11;1.02;;;0.80;;
74935;SDS011;63501;55.570;37.488;2023-06-22T01:34:39;3.15;;;1.27;;
74935;SDS011;63501;55.570;37.488;2023-06-22T01:37:08;2.75;;;1.33;;
74935;SDS011;63501;55.570;37.488;2023-06-22T01:39:35;4.15;;;1.88;;
74935;SDS011;63501;55.570;37.488;2023-06-22T01:42:03;3.28;;;1.23;;
74935;SDS011;63501;55.570;37.488;2023-06-22T01:44:31;1.45;;;1.00;;
74935;SDS011;63501;55.570;37.488;2023-06-22T01:47:01;3.03;;;0.93;;
74935;SDS011;63501;55.570;37.488;2023-06-22T01:49:28;1.55;;;1.25;;
74935;SDS011;63501;55.570;37.488;2023-06-22T01:51:56;7.32;;;1.70;;
74935;SDS011;63501;55.570;37.488;2023-06-22T01:54:23;4.32;;;1.00;;
74935;SDS011;63501;55.570;37.488;2023-06-22T01:56:50;3.45;;;1.77;;
74935;SDS011;63501;55.570;37.488;2023-06-22T01:59:22;2.55;;;1.40;;
74935;SDS011;63501;55.570;37.488;2023-06-22T02:01:57;2.38;;;1.38;;
74935;SDS011;63501;55.570;37.488;2023-06-22T02:04:34;2.55;;;1.58;;
74935;SDS011;63501;55.570;37.488;2023-06-22T02:07:05;4.32;;;1.40;;
74935;SDS011;63501;55.570;37.488;2023-06-22T02:09:39;3.83;;;1.73;;
74935;SDS011;63501;55.570;37.488;2023-06-22T02:12:10;3.58;;;2.42;;
74935;SDS011;63501;55.570;37.488;2023-06-22T02:14:39;2.10;;;1.25;;
74935;SDS011;63501;55.570;37.488;2023-06-22T02:17:09;2.40;;;1.75;;
74935;SDS011;63501;55.570;37.488;2023-06-22T02:19:37;2.35;;;1.55;;
74935;SDS011;63501;55.570;37.488;2023-06-22T02:22:04;0.90;;;0.73;;
74935;SDS011;63501;55.570;37.488;2023-06-22T02:24:31;1.55;;;1.40;;
74935;SDS011;63501;55.570;37.488;2023-06-22T02:26:59;2.75;;;1.63;;
74935;SDS011;63501;55.570;37.488;2023-06-22T02:29:27;2.53;;;1.60;;
74935;SDS011;63501;55.570;37.488;2023-06-22T02:31:54;5.40;;;2.25;;
74935;SDS011;63501;55.570;37.488;2023-06-22T02:34:23;1.20;;;1.08;;
74935;SDS011;63501;55.570;37.488;2023-06-22T02:36:51;1.90;;;1.30;;
74935;SDS011;63501;55.570;37.488;2023-06-22T02:39:21;1.25;;;1.10;;
74935;SDS011;63501;55.570;37.488;2023-06-22T02:41:50;1.85;;;1.73;;
74935;SDS011;63501;55.570;37.488;2023-06-22T02:44:17;3.42;;;1.48;;
74935;SDS011;63501;55.570;37.488;2023-06-22T02:46:45;3.00;;;2.22;;
74935;SDS011;63501;55.570;37.488;2023-06-22T02:49:12;2.78;;;1.80;;
74935;SDS011;63501;55.570;37.488;2023-06-22T02:51:41;2.10;;;1.60;;
74935;SDS011;63501;55.570;37.488;2023-06-22T02:54:11;3.78;;;1.90;;
74935;SDS011;63501;55.570;37.488;2023-06-22T02:56:38;4.72;;;1.35;;
74935;SDS011;63501;55.570;37.488;2023-06-22T02:59:09;3.38;;;1.27;;
74935;SDS011;63501;55.570;37.488;2023-06-22T03:01:36;1.50;;;1.20;;
74935;SDS011;63501;55.570;37.488;2023-06-22T03:04:05;10.43;;;1.60;;
74935;SDS011;63501;55.570;37.488;2023-06-22T03:09:02;1.90;;;1.23;;
74935;SDS011;63501;55.570;37.488;2023-06-22T03:11:30;3.95;;;1.75;;
74935;SDS011;63501;55.570;37.488;2023-06-22T03:13:58;2.97;;;1.73;;
74935;SDS011;63501;55.570;37.488;2023-06-22T03:16:25;4.18;;;2.08;;
74935;SDS011;63501;55.570;37.488;2023-06-22T03:18:52;3.33;;;1.80;;
74935;SDS011;63501;55.570;37.488;2023-06-22T03:21:22;4.95;;;2.15;;
74935;SDS011;63501;55.570;37.488;2023-06-22T03:23:49;3.70;;;1.80;;
74935;SDS011;63501;55.570;37.488;2023-06-22T03:26:18;7.30;;;2.83;;
74935;SDS011;63501;55.570;37.488;2023-06-22T03:28:46;9.60;;;3.38;;
74935;SDS011;63501;55.570;37.488;2023-06-22T03:31:13;6.72;;;3.28;;
74935;SDS011;63501;55.570;37.488;2023-06-22T03:33:40;6.78;;;3.40;;
74935;SDS011;63501;55.570;37.488;2023-06-22T03:36:07;6.75;;;3.90;;
74935;SDS011;63501;55.570;37.488;2023-06-22T03:38:35;10.13;;;3.92;;
74935;SDS011;63501;55.570;37.488;2023-06-22T03:41:02;8.77;;;3.83;;
74935;SDS011;63501;55.570;37.488;2023-06-22T03:43:30;6.60;;;2.97;;
74935;SDS011;63501;55.570;37.488;2023-06-22T03:45:58;4.38;;;3.40;;
74935;SDS011;63501;55.570;37.488;2023-06-22T03:48:25;5.35;;;3.00;;
74935;SDS011;63501;55.570;37.488;2023-06-22T03:50:52;6.22;;;3.90;;
74935;SDS011;63501;55.570;37.488;2023-06-22T03:53:19;6.63;;;3.47;;
74935;SDS011;63501;55.570;37.488;2023-06-22T03:55:49;7.28;;;3.63;;
74935;SDS011;63501;55.570;37.488;2023-06-22T03:58:16;5.72;;;3.40;;
74935;SDS011;63501;55.570;37.488;2023-06-22T04:00:46;6.75;;;3.88;;
74935;SDS011;63501;55.570;37.488;2023-06-22T04:03:13;4.38;;;2.88;;
74935;SDS011;63501;55.570;37.488;2023-06-22T04:05:40;4.78;;;3.20;;
74935;SDS011;63501;55.570;37.488;2023-06-22T04:08:08;7.00;;;3.28;;
74935;SDS011;63501;55.570;37.488;2023-06-22T04:10:35;5.28;;;3.50;;
74935;SDS011;63501;55.570;37.488;2023-06-22T04:13:02;4.95;;;2.97;;
74935;SDS011;63501;55.570;37.488;2023-06-22T04:15:29;8.68;;;3.40;;
74935;SDS011;63501;55.570;37.488;2023-06-22T04:17:58;6.30;;;3.17;;
74935;SDS011;63501;55.570;37.488;2023-06-22T04:20:25;6.15;;;3.42;;
74935;SDS011;63501;55.570;37.488;2023-06-22T04:22:52;5.20;;;3.25;;
74935;SDS011;63501;55.570;37.488;2023-06-22T04:25:20;5.03;;;2.80;;
74935;SDS011;63501;55.570;37.488;2023-06-22T04:27:47;5.40;;;3.10;;
74935;SDS011;63501;55.570;37.488;2023-06-22T04:30:14;3.28;;;2.15;;
74935;SDS011;63501;55.570;37.488;2023-06-22T04:32:42;4.35;;;2.58;;
74935;SDS011;63501;55.570;37.488;2023-06-22T04:35:11;7.28;;;3.72;;
74935;SDS011;63501;55.570;37.488;2023-06-22T04:37:38;5.68;;;2.78;;
74935;SDS011;63501;55.570;37.488;2023-06-22T04:40:06;3.55;;;2.35;;
74935;SDS011;63501;55.570;37.488;2023-06-22T04:42:34;4.00;;;2.78;;
74935;SDS011;63501;55.570;37.488;2023-06-22T04:45:02;6.00;;;3.13;;
74935;SDS011;63501;55.570;37.488;2023-06-22T04:47:31;4.43;;;2.85;;
74935;SDS011;63501;55.570;37.488;2023-06-22T04:49:58;5.45;;;2.92;;
74935;SDS011;63501;55.570;37.488;2023-06-22T04:52:31;7.03;;;3.17;;
74935;SDS011;63501;55.570;37.488;2023-06-22T04:54:58;6.90;;;3.60;;
74935;SDS011;63501;55.570;37.488;2023-06-22T04:57:25;6.25;;;3.10;;
74935;SDS011;63501;55.570;37.488;2023-06-22T04:59:58;4.25;;;2.50;;
74935;SDS011;63501;55.570;37.488;2023-06-22T05:02:36;3.15;;;2.38;;
74935;SDS011;63501;55.570;37.488;2023-06-22T05:05:04;5.53;;;3.03;;
74935;SDS011;63501;55.570;37.488;2023-06-22T05:07:34;5.03;;;2.95;;
74935;SDS011;63501;55.570;37.488;2023-06-22T05:10:02;4.45;;;2.28;;
74935;SDS011;63501;55.570;37.488;2023-06-22T05:12:31;5.75;;;2.80;;
74935;SDS011;63501;55.570;37.488;2023-06-22T05:14:58;5.93;;;3.15;;
74935;SDS011;63501;55.570;37.488;2023-06-22T05:17:25;5.78;;;2.58;;
74935;SDS011;63501;55.570;37.488;2023-06-22T05:19:52;4.75;;;2.83;;
74935;SDS011;63501;55.570;37.488;2023-06-22T05:22:20;4.90;;;2.90;;
74935;SDS011;63501;55.570;37.488;2023-06-22T05:24:48;5.53;;;2.88;;
74935;SDS011;63501;55.570;37.488;2023-06-22T05:27:15;5.18;;;2.38;;
74935;SDS011;63501;55.570;37.488;2023-06-22T05:29:43;3.63;;;2.80;;
74935;SDS011;63501;55.570;37.488;2023-06-22T05:32:10;4.78;;;2.55;;
74935;SDS011;63501;55.570;37.488;2023-06-22T05:34:37;2.90;;;2.08;;
74935;SDS011;63501;55.570;37.488;2023-06-22T05:37:04;5.97;;;3.08;;
74935;SDS011;63501;55.570;37.488;2023-06-22T05:39:33;5.93;;;3.10;;
74935;SDS011;63501;55.570;37.488;2023-06-22T05:42:05;4.25;;;2.30;;
74935;SDS011;63501;55.570;37.488;2023-06-22T05:44:32;7.63;;;2.80;;
74935;SDS011;63501;55.570;37.488;2023-06-22T05:47:00;4.32;;;2.50;;
74935;SDS011;63501;55.570;37.488;2023-06-22T05:49:27;7.47;;;2.97;;
74935;SDS011;63501;55.570;37.488;2023-06-22T05:51:58;3.97;;;2.35;;
74935;SDS011;63501;55.570;37.488;2023-06-22T05:54:26;5.72;;;2.47;;
74935;SDS011;63501;55.570;37.488;2023-06-22T05:56:54;3.65;;;1.90;;
74935;SDS011;63501;55.570;37.488;2023-06-22T05:59:22;2.10;;;1.55;;
74935;SDS011;63501;55.570;37.488;2023-06-22T06:01:50;2.67;;;1.70;;
74935;SDS011;63501;55.570;37.488;2023-06-22T06:04:17;3.33;;;2.20;;
74935;SDS011;63501;55.570;37.488;2023-06-22T06:06:44;3.20;;;2.40;;
74935;SDS011;63501;55.570;37.488;2023-06-22T06:09:12;3.28;;;2.40;;
74935;SDS011;63501;55.570;37.488;2023-06-22T06:11:40;4.82;;;2.67;;
74935;SDS011;63501;55.570;37.488;2023-06-22T06:16:35;3.17;;;2.30;;
74935;SDS011;63501;55.570;37.488;2023-06-22T06:19:02;4.65;;;2.53;;
74935;SDS011;63501;55.570;37.488;2023-06-22T06:21:30;4.30;;;2.80;;
74935;SDS011;63501;55.570;37.488;2023-06-22T06:26:02;5.00;;;2.65;;
74935;SDS011;63501;55.570;37.488;2023-06-22T06:28:32;4.15;;;2.60;;
74935;SDS011;63501;55.570;37.488;2023-06-22T06:30:59;3.35;;;2.50;;
74935;SDS011;63501;55.570;37.488;2023-06-22T06:33:26;5.45;;;2.60;;
74935;SDS011;63501;55.570;37.488;2023-06-22T06:35:53;2.90;;;1.90;;
74935;SDS011;63501;55.570;37.488;2023-06-22T06:38:21;3.92;;;2.40;;
74935;SDS011;63501;55.570;37.488;2023-06-22T06:40:48;5.20;;;2.88;;
74935;SDS011;63501;55.570;37.488;2023-06-22T06:43:17;4.70;;;2.20;;
74935;SDS011;63501;55.570;37.488;2023-06-22T06:45:44;3.53;;;2.47;;
74935;SDS011;63501;55.570;37.488;2023-06-22T06:48:11;4.05;;;2.50;;
74935;SDS011;63501;55.570;37.488;2023-06-22T06:50:38;3.65;;;2.40;;
74935;SDS011;63501;55.570;37.488;2023-06-22T06:53:05;3.92;;;2.35;;
74935;SDS011;63501;55.570;37.488;2023-06-22T06:55:32;4.65;;;2.70;;
74935;SDS011;63501;55.570;37.488;2023-06-22T06:58:00;5.85;;;2.70;;
74935;SDS011;63501;55.570;37.488;2023-06-22T07:00:30;7.40;;;3.30;;
74935;SDS011;63501;55.570;37.488;2023-06-22T07:02:58;4.13;;;2.67;;
74935;SDS011;63501;55.570;37.488;2023-06-22T07:05:25;3.30;;;2.15;;
74935;SDS011;63501;55.570;37.488;2023-06-22T07:07:52;4.63;;;2.60;;
74935;SDS011;63501;55.570;37.488;2023-06-22T07:10:20;4.07;;;2.30;;
74935;SDS011;63501;55.570;37.488;2023-06-22T07:12:47;3.85;;;2.88;;
74935;SDS011;63501;55.570;37.488;2023-06-22T07:15:14;4.75;;;2.78;;
74935;SDS011;63501;55.570;37.488;2023-06-22T07:17:43;5.18;;;3.00;;
74935;SDS011;63501;55.570;37.488;2023-06-22T07:20:10;3.67;;;2.70;;
74935;SDS011;63501;55.570;37.488;2023-06-22T07:22:39;5.32;;;2.70;;
74935;SDS011;63501;55.570;37.488;2023-06-22T07:25:07;4.03;;;2.38;;
74935;SDS011;63501;55.570;37.488;2023-06-22T07:27:36;5.10;;;2.50;;
74935;SDS011;63501;55.570;37.488;2023-06-22T07:30:05;4.68;;;2.83;;
74935;SDS011;63501;55.570;37.488;2023-06-22T07:32:33;12.55;;;2.92;;
74935;SDS011;63501;55.570;37.488;2023-06-22T07:35:02;5.88;;;2.70;;
74935;SDS011;63501;55.570;37.488;2023-06-22T07:37:31;4.55;;;3.25;;
74935;SDS011;63501;55.570;37.488;2023-06-22T07:39:59;4.30;;;2.67;;
74935;SDS011;63501;55.570;37.488;2023-06-22T07:42:30;3.25;;;2.60;;
74935;SDS011;63501;55.570;37.488;2023-06-22T07:44:58;4.18;;;2.78;;
74935;SDS011;63501;55.570;37.488;2023-06-22T07:47:26;6.03;;;2.80;;
74935;SDS011;63501;55.570;37.488;2023-06-22T07:49:54;3.67;;;2.42;;
74935;SDS011;63501;55.570;37.488;2023-06-22T07:52:24;3.30;;;2.78;;
74935;SDS011;63501;55.570;37.488;2023-06-22T07:54:52;4.13;;;2.60;;
74935;SDS011;63501;55.570;37.488;2023-06-22T07:57:19;3.15;;;2.20;;
74935;SDS011;63501;55.570;37.488;2023-06-22T07:59:46;3.80;;;2.30;;
74935;SDS011;63501;55.570;37.488;2023-06-22T08:02:13;2.95;;;2.50;;
74935;SDS011;63501;55.570;37.488;2023-06-22T08:04:40;3.13;;;2.45;;
74935;SDS011;63501;55.570;37.488;2023-06-22T08:07:07;3.95;;;2.47;;
74935;SDS011;63501;55.570;37.488;2023-06-22T08:09:37;4.95;;;2.80;;
74935;SDS011;63501;55.570;37.488;2023-06-22T08:12:04;4.10;;;3.15;;
74935;SDS011;63501;55.570;37.488;2023-06-22T08:14:32;4.25;;;2.90;;
74935;SDS011;63501;55.570;37.488;2023-06-22T08:17:01;3.90;;;2.58;;
74935;SDS011;63501;55.570;37.488;2023-06-22T08:19:28;6.30;;;2.65;;
74935;SDS011;63501;55.570;37.488;2023-06-22T08:21:55;7.03;;;3.90;;
74935;SDS011;63501;55.570;37.488;2023-06-22T08:24:23;4.13;;;3.60;;
74935;SDS011;63501;55.570;37.488;2023-06-22T08:26:52;7.13;;;5.00;;
74935;SDS011;63501;55.570;37.488;2023-06-22T08:29:19;7.80;;;4.82;;
74935;SDS011;63501;55.570;37.488;2023-06-22T08:31:46;6.35;;;3.53;;
74935;SDS011;63501;55.570;37.488;2023-06-22T08:34:13;5.70;;;3.45;;
74935;SDS011;63501;55.570;37.488;2023-06-22T08:36:40;4.88;;;3.42;;
74935;SDS011;63501;55.570;37.488;2023-06-22T08:39:10;4.47;;;3.20;;
74935;SDS011;63501;55.570;37.488;2023-06-22T08:41:37;3.25;;;2.85;;
74935;SDS011;63501;55.570;37.488;2023-06-22T08:44:06;3.85;;;2.80;;
74935;SDS011;63501;55.570;37.488;2023-06-22T08:46:33;4.10;;;3.08;;
74935;SDS011;63501;55.570;37.488;2023-06-22T08:49:00;4.35;;;2.78;;
74935;SDS011;63501;55.570;37.488;2023-06-22T08:51:28;3.50;;;2.90;;
74935;SDS011;63501;55.570;37.488;2023-06-22T08:53:55;3.97;;;3.15;;
74935;SDS011;63501;55.570;37.488;2023-06-22T08:56:22;4.15;;;2.92;;
74935;SDS011;63501;55.570;37.488;2023-06-22T08:58:49;2.90;;;2.55;;
74935;SDS011;63501;55.570;37.488;2023-06-22T09:01:18;4.40;;;2.90;;
74935;SDS011;63501;55.570;37.488;2023-06-22T09:03:45;4.63;;;2.70;;
74935;SDS011;63501;55.570;37.488;2023-06-22T09:06:19;4.25;;;2.83;;
74935;SDS011;63501;55.570;37.488;2023-06-22T09:08:47;5.75;;;3.40;;
74935;SDS011;63501;55.570;37.488;2023-06-22T09:11:14;5.00;;;3.42;;
74935;SDS011;63501;55.570;37.488;2023-06-22T09:13:42;3.92;;;3.03;;
74935;SDS011;63501;55.570;37.488;2023-06-22T09:16:09;6.72;;;4.65;;
74935;SDS011;63501;55.570;37.488;2023-06-22T09:18:38;4.18;;;3.08;;
74935;SDS011;63501;55.570;37.488;2023-06-22T09:21:05;6.47;;;3.50;;
74935;SDS011;63501;55.570;37.488;2023-06-22T09:23:32;4.28;;;3.10;;
74935;SDS011;63501;55.570;37.488;2023-06-22T09:25:59;4.53;;;3.00;;
74935;SDS011;63501;55.570;37.488;2023-06-22T09:28:27;3.67;;;2.80;;
74935;SDS011;63501;55.570;37.488;2023-06-22T09:30:54;4.43;;;3.90;;
74935;SDS011;63501;55.570;37.488;2023-06-22T09:33:23;4.22;;;3.70;;
74935;SDS011;63501;55.570;37.488;2023-06-22T09:35:52;5.05;;;3.67;;
74935;SDS011;63501;55.570;37.488;2023-06-22T09:38:19;4.20;;;3.80;;
74935;SDS011;63501;55.570;37.488;2023-06-22T09:40:46;3.58;;;3.28;;
74935;SDS011;63501;55.570;37.488;2023-06-22T09:43:13;4.90;;;3.55;;
74935;SDS011;63501;55.570;37.488;2023-06-22T09:45:40;3.38;;;3.00;;
74935;SDS011;63501;55.570;37.488;2023-06-22T09:48:07;4.45;;;3.33;;
74935;SDS011;63501;55.570;37.488;2023-06-22T09:50:35;3.58;;;3.10;;
74935;SDS011;63501;55.570;37.488;2023-06-22T09:53:04;4.55;;;2.83;;
74935;SDS011;63501;55.570;37.488;2023-06-22T09:55:31;4.35;;;4.03;;
74935;SDS011;63501;55.570;37.488;2023-06-22T09:57:58;4.20;;;3.80;;
74935;SDS011;63501;55.570;37.488;2023-06-22T10:00:25;7.70;;;3.75;;
74935;SDS011;63501;55.570;37.488;2023-06-22T10:02:53;5.25;;;3.47;;
74935;SDS011;63501;55.570;37.488;2023-06-22T10:05:21;7.60;;;4.38;;
74935;SDS011;63501;55.570;37.488;2023-06-22T10:07:48;7.30;;;5.75;;
74935;SDS011;63501;55.570;37.488;2023-06-22T10:10:16;2.67;;;2.47;;
74935;SDS011;63501;55.570;37.488;2023-06-22T10:12:45;4.25;;;3.85;;
74935;SDS011;63501;55.570;37.488;2023-06-22T10:15:14;3.95;;;3.63;;
74935;SDS011;63501;55.570;37.488;2023-06-22T10:17:41;4.20;;;3.80;;
74935;SDS011;63501;55.570;37.488;2023-06-22T10:20:09;3.83;;;3.53;;
74935;SDS011;63501;55.570;37.488;2023-06-22T10:22:40;3.70;;;3.33;;
74935;SDS011;63501;55.570;37.488;2023-06-22T10:25:07;4.15;;;3.80;;
74935;SDS011;63501;55.570;37.488;2023-06-22T10:27:37;3.80;;;3.47;;
74935;SDS011;63501;55.570;37.488;2023-06-22T10:30:06;3.65;;;3.35;;
74935;SDS011;63501;55.570;37.488;2023-06-22T10:32:34;6.97;;;3.20;;
74935;SDS011;63501;55.570;37.488;2023-06-22T10:35:02;3.88;;;3.53;;
74935;SDS011;63501;55.570;37.488;2023-06-22T10:37:31;3.67;;;3.38;;
74935;SDS011;63501;55.570;37.488;2023-06-22T10:39:58;4.50;;;3.53;;
74935;SDS011;63501;55.570;37.488;2023-06-22T10:42:26;4.55;;;3.63;;
74935;SDS011;63501;55.570;37.488;2023-06-22T10:44:54;5.18;;;3.75;;
74935;SDS011;63501;55.570;37.488;2023-06-22T10:47:21;4.57;;;3.67;;
74935;SDS011;63501;55.570;37.488;2023-06-22T10:49:48;5.95;;;4.43;;
74935;SDS011;63501;55.570;37.488;2023-06-22T10:52:15;4.38;;;3.92;;
74935;SDS011;63501;55.570;37.488;2023-06-22T10:54:42;4.50;;;4.10;;
74935;SDS011;63501;55.570;37.488;2023-06-22T10:57:10;4.70;;;3.55;;
74935;SDS011;63501;55.570;37.488;2023-06-22T10:59:37;4.10;;;3.80;;
74935;SDS011;63501;55.570;37.488;2023-06-22T11:02:06;3.80;;;3.30;;
74935;SDS011;63501;55.570;37.488;2023-06-22T11:04:33;4.55;;;3.47;;
74935;SDS011;63501;55.570;37.488;2023-06-22T11:07:00;6.80;;;3.58;;
74935;SDS011;63501;55.570;37.488;2023-06-22T11:09:27;4.55;;;3.63;;
74935;SDS011;63501;55.570;37.488;2023-06-22T11:11:55;4.25;;;3.70;;
74935;SDS011;63501;55.570;37.488;2023-06-22T11:14:24;3.65;;;3.35;;
74935;SDS011;63501;55.570;37.488;2023-06-22T11:16:51;4.45;;;4.03;;
74935;SDS011;63501;55.570;37.488;2023-06-22T11:19:20;4.10;;;3.30;;
74935;SDS011;63501;55.570;37.488;2023-06-22T11:21:47;4.13;;;3.72;;
74935;SDS011;63501;55.570;37.488;2023-06-22T11:24:14;4.20;;;3.60;;
74935;SDS011;63501;55.570;37.488;2023-06-22T11:26:42;3.70;;;3.40;;
74935;SDS011;63501;55.570;37.488;2023-06-22T11:29:09;5.43;;;3.63;;
74935;SDS011;63501;55.570;37.488;2023-06-22T11:31:36;3.00;;;2.70;;
74935;SDS011;63501;55.570;37.488;2023-06-22T11:34:04;2.35;;;2.15;;
74935;SDS011;63501;55.570;37.488;2023-06-22T11:36:33;4.57;;;3.30;;
74935;SDS011;63501;55.570;37.488;2023-06-22T11:39:00;4.03;;;3.72;;
74935;SDS011;63501;55.570;37.488;2023-06-22T11:41:28;2.80;;;2.33;;
74935;SDS011;63501;55.570;37.488;2023-06-22T11:43:55;3.65;;;3.35;;
74935;SDS011;63501;55.570;37.488;2023-06-22T11:46:22;3.78;;;3.38;;
74935;SDS011;63501;55.570;37.488;2023-06-22T11:48:49;4.03;;;3.25;;
74935;SDS011;63501;55.570;37.488;2023-06-22T11:51:16;4.85;;;3.25;;
74935;SDS011;63501;55.570;37.488;2023-06-22T11:53:45;4.80;;;3.47;;
74935;SDS011;63501;55.570;37.488;2023-06-22T11:56:12;4.70;;;3.67;;
74935;SDS011;63501;55.570;37.488;2023-06-22T11:58:39;5.22;;;3.95;;
74935;SDS011;63501;55.570;37.488;2023-06-22T12:01:06;5.25;;;3.53;;
74935;SDS011;63501;55.570;37.488;2023-06-22T12:03:33;5.82;;;4.40;;
74935;SDS011;63501;55.570;37.488;2023-06-22T12:06:00;4.15;;;3.40;;
74935;SDS011;63501;55.570;37.488;2023-06-22T12:08:27;5.10;;;3.97;;
74935;SDS011;63501;55.570;37.488;2023-06-22T12:10:56;5.95;;;4.05;;
74935;SDS011;63501;55.570;37.488;2023-06-22T12:13:23;5.25;;;3.60;;
74935;SDS011;63501;55.570;37.488;2023-06-22T12:15:50;4.68;;;4.10;;
74935;SDS011;63501;55.570;37.488;2023-06-22T12:18:18;4.53;;;2.95;;
74935;SDS011;63501;55.570;37.488;2023-06-22T12:20:46;3.92;;;3.45;;
74935;SDS011;63501;55.570;37.488;2023-06-22T12:23:14;4.85;;;4.00;;
74935;SDS011;63501;55.570;37.488;2023-06-22T12:25:41;4.50;;;3.53;;
74935;SDS011;63501;55.570;37.488;2023-06-22T12:28:10;5.20;;;3.97;;
74935;SDS011;63501;55.570;37.488;2023-06-22T12:30:37;4.45;;;3.60;;
74935;SDS011;63501;55.570;37.488;2023-06-22T12:33:04;3.88;;;3.42;;
74935;SDS011;63501;55.570;37.488;2023-06-22T12:35:31;3.33;;;2.80;;
74935;SDS011;63501;55.570;37.488;2023-06-22T12:37:58;4.43;;;4.03;;
74935;SDS011;63501;55.570;37.488;2023-06-22T12:40:25;3.72;;;3.35;;
74935;SDS011;63501;55.570;37.488;2023-06-22T12:42:52;3.40;;;3.10;;
74935;SDS011;63501;55.570;37.488;2023-06-22T12:45:20;7.53;;;3.72;;
74935;SDS011;63501;55.570;37.488;2023-06-22T12:47:48;5.05;;;4.20;;
74935;SDS011;63501;55.570;37.488;2023-06-22T12:50:15;5.18;;;4.55;;
74935;SDS011;63501;55.570;37.488;2023-06-22T12:52:42;6.97;;;3.15;;
74935;SDS011;63501;55.570;37.488;2023-06-22T12:55:10;4.47;;;3.53;;
74935;SDS011;63501;55.570;37.488;2023-06-22T12:57:37;4.10;;;3.22;;
74935;SDS011;63501;55.570;37.488;2023-06-22T13:02:34;4.95;;;4.22;;
74935;SDS011;63501;55.570;37.488;2023-06-22T13:05:02;3.95;;;3.08;;
74935;SDS011;63501;55.570;37.488;2023-06-22T13:07:31;5.38;;;3.75;;
74935;SDS011;63501;55.570;37.488;2023-06-22T13:09:58;5.45;;;4.50;;
74935;SDS011;63501;55.570;37.488;2023-06-22T13:12:25;5.32;;;3.90;;
74935;SDS011;63501;55.570;37.488;2023-06-22T13:14:52;4.78;;;4.10;;
74935;SDS011;63501;55.570;37.488;2023-06-22T13:17:20;3.33;;;3.03;;
74935;SDS011;63501;55.570;37.488;2023-06-22T13:19:48;4.43;;;4.00;;
74935;SDS011;63501;55.570;37.488;2023-06-22T13:22:29;4.88;;;3.63;;
74935;SDS011;63501;55.570;37.488;2023-06-22T13:24:57;4.20;;;3.38;;
74935;SDS011;63501;55.570;37.488;2023-06-22T13:27:25;4.57;;;3.53;;
74935;SDS011;63501;55.570;37.488;2023-06-22T13:29:53;4.22;;;3.60;;
74935;SDS011;63501;55.570;37.488;2023-06-22T13:32:20;6.93;;;4.13;;
74935;SDS011;63501;55.570;37.488;2023-06-22T13:34:49;5.68;;;3.92;;
74935;SDS011;63501;55.570;37.488;2023-06-22T13:37:16;4.03;;;3.25;;
74935;SDS011;63501;55.570;37.488;2023-06-22T13:39:43;5.22;;;4.10;;
74935;SDS011;63501;55.570;37.488;2023-06-22T13:42:10;4.13;;;3.72;;
74935;SDS011;63501;55.570;37.488;2023-06-22T13:44:38;4.15;;;3.70;;
74935;SDS011;63501;55.570;37.488;2023-06-22T13:47:05;4.70;;;4.30;;
74935;SDS011;63501;55.570;37.488;2023-06-22T13:49:33;3.40;;;3.05;;
74935;SDS011;63501;55.570;37.488;2023-06-22T13:52:01;3.97;;;3.53;;
74935;SDS011;63501;55.570;37.488;2023-06-22T13:54:29;5.50;;;4.43;;
74935;SDS011;63501;55.570;37.488;2023-06-22T13:56:56;5.13;;;3.63;;
74935;SDS011;63501;55.570;37.488;2023-06-22T13:59:23;3.28;;;2.75;;
74935;SDS011;63501;55.570;37.488;2023-06-22T14:01:51;4.78;;;4.28;;
74935;SDS011;63501;55.570;37.488;2023-06-22T14:04:18;4.13;;;3.45;;
74935;SDS011;63501;55.570;37.488;2023-06-22T14:06:45;2.92;;;2.55;;
74935;SDS011;63501;55.570;37.488;2023-06-22T14:09:14;4.22;;;3.28;;
74935;SDS011;63501;55.570;37.488;2023-06-22T14:11:41;4.60;;;4.20;;
74935;SDS011;63501;55.570;37.488;2023-06-22T14:14:08;5.93;;;4.22;;
74935;SDS011;63501;55.570;37.488;2023-06-22T14:16:35;5.43;;;4.53;;
74935;SDS011;63501;55.570;37.488;2023-06-22T14:19:02;6.63;;;4.30;;
74935;SDS011;63501;55.570;37.488;2023-06-22T14:21:29;4.10;;;3.70;;
74935;SDS011;63501;55.570;37.488;2023-06-22T14:23:57;4.60;;;4.15;;
74935;SDS011;63501;55.570;37.488;2023-06-22T14:26:25;5.10;;;3.72;;
74935;SDS011;63501;55.570;37.488;2023-06-22T14:28:52;5.00;;;2.40;;
74935;SDS011;63501;55.570;37.488;2023-06-22T14:31:19;4.28;;;3.63;;
74935;SDS011;63501;55.570;37.488;2023-06-22T14:33:47;3.95;;;3.55;;
74935;SDS011;63501;55.570;37.488;2023-06-22T14:36:15;3.28;;;2.55;;
74935;SDS011;63501;55.570;37.488;2023-06-22T14:38:43;3.58;;;3.25;;
74935;SDS011;63501;55.570;37.488;2023-06-22T14:41:11;5.03;;;2.85;;
74935;SDS011;63501;55.570;37.488;2023-06-22T14:43:44;2.90;;;2.65;;
74935;SDS011;63501;55.570;37.488;2023-06-22T14:46:12;5.45;;;3.55;;
74935;SDS011;63501;55.570;37.488;2023-06-22T14:48:40;4.07;;;3.67;;